sensor_id;sensor_type;location;lat;lon;timestamp;temperature;humidity
76299;DHT22;65236;42.332;23.550;2022-12-28T00:02:23;3.20;79.61
76299;DHT22;65236;42.332;23.550;2022-12-28T00:04:48;3.29;78.84
76299;DHT22;65236;42.332;23.550;2022-12-28T00:07:14;3.33;78.54
76299;DHT22;65236;42.332;23.550;2022-12-28T00:09:39;3.37;76.37
76299;DHT22;65236;42.332;23.550;2022-12-28T00:12:05;3.46;75.72
76299;DHT22;65236;42.332;23.550;2022-12-28T00:14:30;3.47;75.26
76299;DHT22;65236;42.332;23.550;2022-12-28T00:16:55;3.50;75.05
76299;DHT22;65236;42.332;23.550;2022-12-28T00:19:21;3.52;75.00
76299;DHT22;65236;42.332;23.550;2022-12-28T00:21:46;3.49;74.82
76299;DHT22;65236;42.332;23.550;2022-12-28T00:24:23;3.46;74.96
76299;DHT22;65236;42.332;23.550;2022-12-28T00:26:49;3.32;75.00
76299;DHT22;65236;42.332;23.550;2022-12-28T00:29:15;3.25;73.79
76299;DHT22;65236;42.332;23.550;2022-12-28T00:31:41;3.18;73.72
76299;DHT22;65236;42.332;23.550;2022-12-28T00:34:06;3.15;73.23
76299;DHT22;65236;42.332;23.550;2022-12-28T00:36:32;3.09;73.09
76299;DHT22;65236;42.332;23.550;2022-12-28T00:38:57;3.07;73.28
76299;DHT22;65236;42.332;23.550;2022-12-28T00:41:23;2.99;73.89
76299;DHT22;65236;42.332;23.550;2022-12-28T00:43:49;2.99;74.84
76299;DHT22;65236;42.332;23.550;2022-12-28T00:46:14;2.91;75.50
76299;DHT22;65236;42.332;23.550;2022-12-28T00:48:42;2.87;75.96
76299;DHT22;65236;42.332;23.550;2022-12-28T00:51:11;2.81;76.30
76299;DHT22;65236;42.332;23.550;2022-12-28T00:53:37;2.80;76.35
76299;DHT22;65236;42.332;23.550;2022-12-28T00:56:04;2.76;76.51
76299;DHT22;65236;42.332;23.550;2022-12-28T00:58:30;2.70;76.82
76299;DHT22;65236;42.332;23.550;2022-12-28T01:00:55;2.68;77.22
76299;DHT22;65236;42.332;23.550;2022-12-28T01:03:20;2.68;77.67
76299;DHT22;65236;42.332;23.550;2022-12-28T01:05:46;2.70;77.84
76299;DHT22;65236;42.332;23.550;2022-12-28T01:08:11;2.65;77.89
76299;DHT22;65236;42.332;23.550;2022-12-28T01:10:38;2.74;77.89
76299;DHT22;65236;42.332;23.550;2022-12-28T01:13:03;2.80;77.65
76299;DHT22;65236;42.332;23.550;2022-12-28T01:15:28;2.84;77.64
76299;DHT22;65236;42.332;23.550;2022-12-28T01:17:54;2.97;77.38
76299;DHT22;65236;42.332;23.550;2022-12-28T01:20:19;3.02;77.09
76299;DHT22;65236;42.332;23.550;2022-12-28T01:22:45;3.08;76.94
76299;DHT22;65236;42.332;23.550;2022-12-28T01:25:10;3.09;76.88
76299;DHT22;65236;42.332;23.550;2022-12-28T01:27:37;3.13;76.66
76299;DHT22;65236;42.332;23.550;2022-12-28T01:30:03;3.18;76.62
76299;DHT22;65236;42.332;23.550;2022-12-28T01:32:29;3.26;76.45
76299;DHT22;65236;42.332;23.550;2022-12-28T01:34:55;3.28;75.76
76299;DHT22;65236;42.332;23.550;2022-12-28T01:37:20;3.37;75.41
76299;DHT22;65236;42.332;23.550;2022-12-28T01:39:46;3.46;74.80
76299;DHT22;65236;42.332;23.550;2022-12-28T01:42:16;3.53;74.38
76299;DHT22;65236;42.332;23.550;2022-12-28T01:44:44;3.56;73.30
76299;DHT22;65236;42.332;23.550;2022-12-28T01:47:15;3.62;72.58
76299;DHT22;65236;42.332;23.550;2022-12-28T01:49:59;3.70;70.96
76299;DHT22;65236;42.332;23.550;2022-12-28T01:52:44;3.78;68.21
76299;DHT22;65236;42.332;23.550;2022-12-28T01:55:21;3.77;66.31
76299;DHT22;65236;42.332;23.550;2022-12-28T01:57:56;3.84;65.99
76299;DHT22;65236;42.332;23.550;2022-12-28T02:00:23;3.93;65.62
76299;DHT22;65236;42.332;23.550;2022-12-28T02:03:10;4.01;64.78
76299;DHT22;65236;42.332;23.550;2022-12-28T02:05:43;4.04;64.78
76299;DHT22;65236;42.332;23.550;2022-12-28T02:08:14;4.08;64.10
76299;DHT22;65236;42.332;23.550;2022-12-28T02:10:41;4.14;64.29
76299;DHT22;65236;42.332;23.550;2022-12-28T02:13:07;4.12;63.58
76299;DHT22;65236;42.332;23.550;2022-12-28T02:15:33;4.15;63.35
76299;DHT22;65236;42.332;23.550;2022-12-28T02:17:59;4.16;63.16
76299;DHT22;65236;42.332;23.550;2022-12-28T02:20:30;4.18;63.01
76299;DHT22;65236;42.332;23.550;2022-12-28T02:31:47;4.22;63.15
76299;DHT22;65236;42.332;23.550;2022-12-28T02:34:24;4.25;64.51
76299;DHT22;65236;42.332;23.550;2022-12-28T02:37:01;4.28;66.80
76299;DHT22;65236;42.332;23.550;2022-12-28T02:39:33;4.28;68.36
76299;DHT22;65236;42.332;23.550;2022-12-28T02:42:03;4.29;68.96
76299;DHT22;65236;42.332;23.550;2022-12-28T02:44:28;4.26;69.41
76299;DHT22;65236;42.332;23.550;2022-12-28T02:47:14;4.26;69.69
76299;DHT22;65236;42.332;23.550;2022-12-28T02:50:01;4.31;69.95
76299;DHT22;65236;42.332;23.550;2022-12-28T02:56:03;4.54;69.73
76299;DHT22;65236;42.332;23.550;2022-12-28T03:07:16;4.90;67.59
76299;DHT22;65236;42.332;23.550;2022-12-28T03:15:14;4.76;67.73
76299;DHT22;65236;42.332;23.550;2022-12-28T03:17:56;4.67;67.90
76299;DHT22;65236;42.332;23.550;2022-12-28T03:20:43;4.57;68.55
76299;DHT22;65236;42.332;23.550;2022-12-28T03:23:29;4.53;68.78
76299;DHT22;65236;42.332;23.550;2022-12-28T03:26:15;4.59;68.54
76299;DHT22;65236;42.332;23.550;2022-12-28T03:29:01;4.64;68.40
76299;DHT22;65236;42.332;23.550;2022-12-28T03:31:47;4.67;68.61
76299;DHT22;65236;42.332;23.550;2022-12-28T03:34:12;4.74;68.37
76299;DHT22;65236;42.332;23.550;2022-12-28T03:39:55;4.76;68.65
76299;DHT22;65236;42.332;23.550;2022-12-28T03:42:24;4.70;68.38
76299;DHT22;65236;42.332;23.550;2022-12-28T03:45:22;4.54;68.96
76299;DHT22;65236;42.332;23.550;2022-12-28T03:47:50;4.54;69.36
76299;DHT22;65236;42.332;23.550;2022-12-28T03:50:17;4.49;69.45
76299;DHT22;65236;42.332;23.550;2022-12-28T03:52:43;4.53;69.56
76299;DHT22;65236;42.332;23.550;2022-12-28T03:55:10;4.52;69.36
76299;DHT22;65236;42.332;23.550;2022-12-28T03:57:37;4.53;69.48
76299;DHT22;65236;42.332;23.550;2022-12-28T04:00:03;4.60;69.35
76299;DHT22;65236;42.332;23.550;2022-12-28T04:02:29;4.63;69.19
76299;DHT22;65236;42.332;23.550;2022-12-28T04:04:54;4.74;69.11
76299;DHT22;65236;42.332;23.550;2022-12-28T04:07:20;4.81;68.62
76299;DHT22;65236;42.332;23.550;2022-12-28T04:09:45;4.87;68.33
76299;DHT22;65236;42.332;23.550;2022-12-28T04:12:11;4.90;68.08
76299;DHT22;65236;42.332;23.550;2022-12-28T04:14:38;4.90;68.02
76299;DHT22;65236;42.332;23.550;2022-12-28T04:17:04;4.91;68.00
76299;DHT22;65236;42.332;23.550;2022-12-28T04:19:29;4.94;68.01
76299;DHT22;65236;42.332;23.550;2022-12-28T04:21:55;4.92;67.85
76299;DHT22;65236;42.332;23.550;2022-12-28T04:24:20;4.90;67.92
76299;DHT22;65236;42.332;23.550;2022-12-28T04:26:45;4.87;68.04
76299;DHT22;65236;42.332;23.550;2022-12-28T04:29:11;4.84;67.91
76299;DHT22;65236;42.332;23.550;2022-12-28T04:31:36;4.84;67.80
76299;DHT22;65236;42.332;23.550;2022-12-28T04:34:02;4.80;67.51
76299;DHT22;65236;42.332;23.550;2022-12-28T04:36:27;4.81;67.67
76299;DHT22;65236;42.332;23.550;2022-12-28T04:38:53;4.79;67.60
76299;DHT22;65236;42.332;23.550;2022-12-28T04:41:18;4.79;67.87
76299;DHT22;65236;42.332;23.550;2022-12-28T04:43:44;4.74;68.24
76299;DHT22;65236;42.332;23.550;2022-12-28T04:46:11;4.69;68.27
76299;DHT22;65236;42.332;23.550;2022-12-28T04:48:37;4.66;68.17
76299;DHT22;65236;42.332;23.550;2022-12-28T04:53:39;4.52;67.51
76299;DHT22;65236;42.332;23.550;2022-12-28T04:56:06;4.43;68.42
76299;DHT22;65236;42.332;23.550;2022-12-28T04:58:32;4.35;68.75
76299;DHT22;65236;42.332;23.550;2022-12-28T05:01:04;4.23;69.52
76299;DHT22;65236;42.332;23.550;2022-12-28T05:03:30;4.16;69.75
76299;DHT22;65236;42.332;23.550;2022-12-28T05:06:02;4.09;70.31
76299;DHT22;65236;42.332;23.550;2022-12-28T05:08:30;3.99;71.57
76299;DHT22;65236;42.332;23.550;2022-12-28T05:10:59;3.85;72.21
76299;DHT22;65236;42.332;23.550;2022-12-28T05:13:25;3.77;72.83
76299;DHT22;65236;42.332;23.550;2022-12-28T05:15:50;3.63;73.35
76299;DHT22;65236;42.332;23.550;2022-12-28T05:18:15;3.57;73.62
76299;DHT22;65236;42.332;23.550;2022-12-28T05:20:41;3.53;73.84
76299;DHT22;65236;42.332;23.550;2022-12-28T05:23:06;3.53;74.11
76299;DHT22;65236;42.332;23.550;2022-12-28T05:25:32;3.49;74.53
76299;DHT22;65236;42.332;23.550;2022-12-28T05:27:57;3.50;74.66
76299;DHT22;65236;42.332;23.550;2022-12-28T05:30:22;3.50;74.90
76299;DHT22;65236;42.332;23.550;2022-12-28T05:32:48;3.39;75.71
76299;DHT22;65236;42.332;23.550;2022-12-28T05:35:13;3.16;76.61
76299;DHT22;65236;42.332;23.550;2022-12-28T05:37:39;3.01;77.47
76299;DHT22;65236;42.332;23.550;2022-12-28T05:40:04;2.90;78.08
76299;DHT22;65236;42.332;23.550;2022-12-28T05:42:30;2.90;78.47
76299;DHT22;65236;42.332;23.550;2022-12-28T05:44:56;2.90;78.84
76299;DHT22;65236;42.332;23.550;2022-12-28T05:47:21;2.95;78.82
76299;DHT22;65236;42.332;23.550;2022-12-28T05:49:47;3.07;78.62
76299;DHT22;65236;42.332;23.550;2022-12-28T05:52:12;3.16;78.25
76299;DHT22;65236;42.332;23.550;2022-12-28T05:54:38;3.23;77.87
76299;DHT22;65236;42.332;23.550;2022-12-28T05:57:03;3.22;77.72
76299;DHT22;65236;42.332;23.550;2022-12-28T05:59:28;3.20;77.83
76299;DHT22;65236;42.332;23.550;2022-12-28T06:01:54;3.22;77.89
76299;DHT22;65236;42.332;23.550;2022-12-28T06:04:20;3.22;77.45
76299;DHT22;65236;42.332;23.550;2022-12-28T06:06:46;3.29;76.95
76299;DHT22;65236;42.332;23.550;2022-12-28T06:09:12;3.33;76.07
76299;DHT22;65236;42.332;23.550;2022-12-28T06:11:39;3.36;75.79
76299;DHT22;65236;42.332;23.550;2022-12-28T06:14:05;3.44;74.79
76299;DHT22;65236;42.332;23.550;2022-12-28T06:16:33;3.50;74.43
76299;DHT22;65236;42.332;23.550;2022-12-28T06:19:03;3.63;74.27
76299;DHT22;65236;42.332;23.550;2022-12-28T06:21:31;3.75;74.10
76299;DHT22;65236;42.332;23.550;2022-12-28T06:23:58;3.94;73.62
76299;DHT22;65236;42.332;23.550;2022-12-28T06:26:25;4.09;73.00
76299;DHT22;65236;42.332;23.550;2022-12-28T06:28:50;4.18;72.50
76299;DHT22;65236;42.332;23.550;2022-12-28T06:31:18;4.28;72.05
76299;DHT22;65236;42.332;23.550;2022-12-28T06:33:44;4.39;71.61
76299;DHT22;65236;42.332;23.550;2022-12-28T06:36:19;4.42;71.58
76299;DHT22;65236;42.332;23.550;2022-12-28T06:38:44;4.48;71.70
76299;DHT22;65236;42.332;23.550;2022-12-28T06:41:13;4.54;71.27
76299;DHT22;65236;42.332;23.550;2022-12-28T06:43:40;4.63;70.86
76299;DHT22;65236;42.332;23.550;2022-12-28T06:46:06;4.71;70.68
76299;DHT22;65236;42.332;23.550;2022-12-28T06:48:33;4.84;70.25
76299;DHT22;65236;42.332;23.550;2022-12-28T06:51:01;4.97;70.22
76299;DHT22;65236;42.332;23.550;2022-12-28T06:53:30;5.11;70.32
76299;DHT22;65236;42.332;23.550;2022-12-28T06:56:01;5.24;70.10
76299;DHT22;65236;42.332;23.550;2022-12-28T06:58:28;5.31;69.93
76299;DHT22;65236;42.332;23.550;2022-12-28T07:00:55;5.39;69.50
76299;DHT22;65236;42.332;23.550;2022-12-28T07:03:22;5.43;69.47
76299;DHT22;65236;42.332;23.550;2022-12-28T07:05:48;5.39;69.47
76299;DHT22;65236;42.332;23.550;2022-12-28T07:08:13;5.39;69.60
76299;DHT22;65236;42.332;23.550;2022-12-28T07:10:39;5.45;69.83
76299;DHT22;65236;42.332;23.550;2022-12-28T07:13:05;5.50;69.56
76299;DHT22;65236;42.332;23.550;2022-12-28T07:15:30;5.60;69.48
76299;DHT22;65236;42.332;23.550;2022-12-28T07:17:57;5.77;68.99
76299;DHT22;65236;42.332;23.550;2022-12-28T07:20:23;5.98;68.56
76299;DHT22;65236;42.332;23.550;2022-12-28T07:22:48;6.14;67.81
76299;DHT22;65236;42.332;23.550;2022-12-28T07:25:14;6.25;67.35
76299;DHT22;65236;42.332;23.550;2022-12-28T07:27:39;6.36;67.32
76299;DHT22;65236;42.332;23.550;2022-12-28T07:30:05;6.54;66.55
76299;DHT22;65236;42.332;23.550;2022-12-28T07:32:31;6.77;66.11
76299;DHT22;65236;42.332;23.550;2022-12-28T07:34:56;7.01;65.65
76299;DHT22;65236;42.332;23.550;2022-12-28T07:37:21;7.27;65.21
76299;DHT22;65236;42.332;23.550;2022-12-28T07:39:47;7.46;64.95
76299;DHT22;65236;42.332;23.550;2022-12-28T07:42:12;7.53;64.68
76299;DHT22;65236;42.332;23.550;2022-12-28T07:44:38;7.65;65.03
76299;DHT22;65236;42.332;23.550;2022-12-28T07:47:10;7.73;64.70
76299;DHT22;65236;42.332;23.550;2022-12-28T07:49:36;7.77;64.53
76299;DHT22;65236;42.332;23.550;2022-12-28T07:52:01;7.83;64.34
76299;DHT22;65236;42.332;23.550;2022-12-28T07:54:27;7.80;64.24
76299;DHT22;65236;42.332;23.550;2022-12-28T07:56:52;7.79;64.27
76299;DHT22;65236;42.332;23.550;2022-12-28T07:59:18;7.83;64.38
76299;DHT22;65236;42.332;23.550;2022-12-28T08:01:43;7.89;64.34
76299;DHT22;65236;42.332;23.550;2022-12-28T08:04:11;7.87;64.03
76299;DHT22;65236;42.332;23.550;2022-12-28T08:06:39;7.79;63.91
76299;DHT22;65236;42.332;23.550;2022-12-28T08:09:06;7.77;64.14
76299;DHT22;65236;42.332;23.550;2022-12-28T08:11:35;7.80;64.13
76299;DHT22;65236;42.332;23.550;2022-12-28T08:14:01;7.74;63.82
76299;DHT22;65236;42.332;23.550;2022-12-28T08:16:29;7.69;64.08
76299;DHT22;65236;42.332;23.550;2022-12-28T08:18:55;7.66;64.43
76299;DHT22;65236;42.332;23.550;2022-12-28T08:21:42;7.72;64.32
76299;DHT22;65236;42.332;23.550;2022-12-28T08:24:12;7.72;64.54
76299;DHT22;65236;42.332;23.550;2022-12-28T08:26:39;7.76;64.19
76299;DHT22;65236;42.332;23.550;2022-12-28T08:29:08;7.76;63.96
76299;DHT22;65236;42.332;23.550;2022-12-28T08:31:36;7.67;63.58
76299;DHT22;65236;42.332;23.550;2022-12-28T08:34:04;7.69;63.85
76299;DHT22;65236;42.332;23.550;2022-12-28T08:36:30;7.66;63.92
76299;DHT22;65236;42.332;23.550;2022-12-28T08:38:55;7.66;64.07
76299;DHT22;65236;42.332;23.550;2022-12-28T08:41:26;7.62;64.09
76299;DHT22;65236;42.332;23.550;2022-12-28T08:43:52;7.49;64.37
76299;DHT22;65236;42.332;23.550;2022-12-28T08:46:20;7.42;64.79
76299;DHT22;65236;42.332;23.550;2022-12-28T08:48:47;7.41;64.77
76299;DHT22;65236;42.332;23.550;2022-12-28T08:51:24;7.31;64.71
76299;DHT22;65236;42.332;23.550;2022-12-28T08:53:49;7.17;65.59
76299;DHT22;65236;42.332;23.550;2022-12-28T08:56:22;7.19;65.83
76299;DHT22;65236;42.332;23.550;2022-12-28T08:58:48;7.24;65.47
76299;DHT22;65236;42.332;23.550;2022-12-28T09:01:17;7.31;64.85
76299;DHT22;65236;42.332;23.550;2022-12-28T09:03:45;7.25;64.38
76299;DHT22;65236;42.332;23.550;2022-12-28T09:06:13;7.25;64.55
76299;DHT22;65236;42.332;23.550;2022-12-28T09:08:39;7.31;64.69
76299;DHT22;65236;42.332;23.550;2022-12-28T09:11:07;7.35;64.73
76299;DHT22;65236;42.332;23.550;2022-12-28T09:13:33;7.38;64.65
76299;DHT22;65236;42.332;23.550;2022-12-28T09:16:03;7.39;64.69
76299;DHT22;65236;42.332;23.550;2022-12-28T09:18:29;7.49;64.45
76299;DHT22;65236;42.332;23.550;2022-12-28T09:20:55;7.65;63.76
76299;DHT22;65236;42.332;23.550;2022-12-28T09:23:21;7.76;63.90
76299;DHT22;65236;42.332;23.550;2022-12-28T09:25:47;7.90;63.50
76299;DHT22;65236;42.332;23.550;2022-12-28T09:28:13;7.94;63.34
76299;DHT22;65236;42.332;23.550;2022-12-28T09:30:38;8.01;63.30
76299;DHT22;65236;42.332;23.550;2022-12-28T09:33:04;8.10;62.59
76299;DHT22;65236;42.332;23.550;2022-12-28T09:36:01;8.27;61.69
76299;DHT22;65236;42.332;23.550;2022-12-28T09:38:30;8.39;61.21
76299;DHT22;65236;42.332;23.550;2022-12-28T09:40:56;8.55;60.53
76299;DHT22;65236;42.332;23.550;2022-12-28T09:43:22;8.66;60.31
76299;DHT22;65236;42.332;23.550;2022-12-28T09:45:48;8.81;60.32
76299;DHT22;65236;42.332;23.550;2022-12-28T09:48:15;8.94;59.92
76299;DHT22;65236;42.332;23.550;2022-12-28T09:50:42;9.10;59.24
76299;DHT22;65236;42.332;23.550;2022-12-28T09:58:21;9.36;58.52
76299;DHT22;65236;42.332;23.550;2022-12-28T10:00:53;9.42;58.50
76299;DHT22;65236;42.332;23.550;2022-12-28T10:03:25;9.45;58.18
76299;DHT22;65236;42.332;23.550;2022-12-28T10:05:52;9.54;58.55
76299;DHT22;65236;42.332;23.550;2022-12-28T10:08:20;9.49;58.51
76299;DHT22;65236;42.332;23.550;2022-12-28T10:10:48;9.51;58.87
76299;DHT22;65236;42.332;23.550;2022-12-28T10:13:20;9.49;58.47
76299;DHT22;65236;42.332;23.550;2022-12-28T10:15:46;9.48;58.61
76299;DHT22;65236;42.332;23.550;2022-12-28T10:18:13;9.49;58.81
76299;DHT22;65236;42.332;23.550;2022-12-28T10:20:40;9.44;58.56
76299;DHT22;65236;42.332;23.550;2022-12-28T10:23:11;9.39;58.36
76299;DHT22;65236;42.332;23.550;2022-12-28T10:25:39;9.34;58.19
76299;DHT22;65236;42.332;23.550;2022-12-28T10:28:09;9.34;58.12
76299;DHT22;65236;42.332;23.550;2022-12-28T10:30:45;9.42;57.96
76299;DHT22;65236;42.332;23.550;2022-12-28T10:33:16;9.39;57.20
76299;DHT22;65236;42.332;23.550;2022-12-28T10:35:48;9.48;57.07
76299;DHT22;65236;42.332;23.550;2022-12-28T10:38:26;9.73;57.15
76299;DHT22;65236;42.332;23.550;2022-12-28T10:41:06;9.97;56.10
76299;DHT22;65236;42.332;23.550;2022-12-28T10:43:34;10.21;54.63
76299;DHT22;65236;42.332;23.550;2022-12-28T10:46:03;10.36;53.92
76299;DHT22;65236;42.332;23.550;2022-12-28T10:48:33;10.44;54.11
76299;DHT22;65236;42.332;23.550;2022-12-28T10:58:39;10.62;52.40
76299;DHT22;65236;42.332;23.550;2022-12-28T11:03:41;10.58;52.12
76299;DHT22;65236;42.332;23.550;2022-12-28T11:06:18;10.62;52.09
76299;DHT22;65236;42.332;23.550;2022-12-28T11:08:56;10.78;51.09
76299;DHT22;65236;42.332;23.550;2022-12-28T11:11:24;10.92;50.80
76299;DHT22;65236;42.332;23.550;2022-12-28T11:14:05;11.02;50.18
76299;DHT22;65236;42.332;23.550;2022-12-28T11:16:36;11.44;49.05
76299;DHT22;65236;42.332;23.550;2022-12-28T11:19:02;12.32;47.68
76299;DHT22;65236;42.332;23.550;2022-12-28T11:21:28;13.33;45.21
76299;DHT22;65236;42.332;23.550;2022-12-28T11:23:53;14.73;42.68
76299;DHT22;65236;42.332;23.550;2022-12-28T11:26:19;17.48;37.50
76299;DHT22;65236;42.332;23.550;2022-12-28T11:28:48;18.52;35.91
76299;DHT22;65236;42.332;23.550;2022-12-28T11:31:46;19.95;32.07
76299;DHT22;65236;42.332;23.550;2022-12-28T11:34:16;18.09;33.94
76299;DHT22;65236;42.332;23.550;2022-12-28T11:36:43;17.16;35.69
76299;DHT22;65236;42.332;23.550;2022-12-28T11:41:53;15.56;37.92
76299;DHT22;65236;42.332;23.550;2022-12-28T11:47:03;14.77;39.32
76299;DHT22;65236;42.332;23.550;2022-12-28T11:49:31;15.39;37.63
76299;DHT22;65236;42.332;23.550;2022-12-28T11:54:57;16.00;37.54
76299;DHT22;65236;42.332;23.550;2022-12-28T11:57:39;16.73;35.69
76299;DHT22;65236;42.332;23.550;2022-12-28T12:02:56;16.38;34.38
76299;DHT22;65236;42.332;23.550;2022-12-28T12:10:39;16.00;32.59
76299;DHT22;65236;42.332;23.550;2022-12-28T12:19:02;15.11;34.58
76299;DHT22;65236;42.332;23.550;2022-12-28T12:21:40;14.70;35.00
76299;DHT22;65236;42.332;23.550;2022-12-28T12:24:29;14.62;35.29
76299;DHT22;65236;42.332;23.550;2022-12-28T12:28:02;14.42;32.33
76299;DHT22;65236;42.332;23.550;2022-12-28T12:30:14;14.33;32.21
76299;DHT22;65236;42.332;23.550;2022-12-28T12:35:21;14.46;32.16
76299;DHT22;65236;42.332;23.550;2022-12-28T12:37:53;14.18;31.82
76299;DHT22;65236;42.332;23.550;2022-12-28T12:43:32;13.13;33.48
76299;DHT22;65236;42.332;23.550;2022-12-28T12:51:36;11.55;37.12
76299;DHT22;65236;42.332;23.550;2022-12-28T12:54:37;11.33;37.89
76299;DHT22;65236;42.332;23.550;2022-12-28T12:57:20;11.02;38.16
76299;DHT22;65236;42.332;23.550;2022-12-28T13:05:18;10.28;39.61
76299;DHT22;65236;42.332;23.550;2022-12-28T13:07:44;10.00;41.34
76299;DHT22;65236;42.332;23.550;2022-12-28T13:10:17;9.81;41.84
76299;DHT22;65236;42.332;23.550;2022-12-28T13:12:44;9.78;42.06
76299;DHT22;65236;42.332;23.550;2022-12-28T13:15:16;9.52;42.36
76299;DHT22;65236;42.332;23.550;2022-12-28T13:18:05;9.42;43.09
76299;DHT22;65236;42.332;23.550;2022-12-28T13:20:32;9.38;43.37
76299;DHT22;65236;42.332;23.550;2022-12-28T13:22:58;9.36;43.31
76299;DHT22;65236;42.332;23.550;2022-12-28T13:25:31;9.36;43.68
76299;DHT22;65236;42.332;23.550;2022-12-28T13:27:59;9.48;43.53
76299;DHT22;65236;42.332;23.550;2022-12-28T13:30:26;9.42;43.22
76299;DHT22;65236;42.332;23.550;2022-12-28T13:35:21;9.46;43.82
76299;DHT22;65236;42.332;23.550;2022-12-28T13:38:03;9.56;44.04
76299;DHT22;65236;42.332;23.550;2022-12-28T13:40:30;9.72;44.43
76299;DHT22;65236;42.332;23.550;2022-12-28T13:45:34;9.79;45.36
76299;DHT22;65236;42.332;23.550;2022-12-28T13:48:00;9.78;45.39
76299;DHT22;65236;42.332;23.550;2022-12-28T13:50:29;9.62;45.56
76299;DHT22;65236;42.332;23.550;2022-12-28T13:53:09;9.39;46.21
76299;DHT22;65236;42.332;23.550;2022-12-28T13:55:39;9.10;46.84
76299;DHT22;65236;42.332;23.550;2022-12-28T13:58:12;8.84;47.54
76299;DHT22;65236;42.332;23.550;2022-12-28T14:00:43;8.62;48.49
76299;DHT22;65236;42.332;23.550;2022-12-28T14:03:16;8.37;49.45
76299;DHT22;65236;42.332;23.550;2022-12-28T14:05:45;8.12;50.64
76299;DHT22;65236;42.332;23.550;2022-12-28T14:08:12;7.97;51.41
76299;DHT22;65236;42.332;23.550;2022-12-28T14:10:39;7.89;52.30
76299;DHT22;65236;42.332;23.550;2022-12-28T14:13:06;7.74;53.00
76299;DHT22;65236;42.332;23.550;2022-12-28T14:15:34;7.83;53.70
76299;DHT22;65236;42.332;23.550;2022-12-28T14:18:00;7.95;53.85
76299;DHT22;65236;42.332;23.550;2022-12-28T14:20:26;8.07;53.98
76299;DHT22;65236;42.332;23.550;2022-12-28T14:22:51;8.15;53.99
76299;DHT22;65236;42.332;23.550;2022-12-28T14:25:19;8.18;54.64
76299;DHT22;65236;42.332;23.550;2022-12-28T14:28:01;8.08;55.03
76299;DHT22;65236;42.332;23.550;2022-12-28T14:30:40;7.93;55.40
76299;DHT22;65236;42.332;23.550;2022-12-28T14:33:19;7.76;56.02
76299;DHT22;65236;42.332;23.550;2022-12-28T14:35:54;7.65;56.22
76299;DHT22;65236;42.332;23.550;2022-12-28T14:38:23;7.46;57.14
76299;DHT22;65236;42.332;23.550;2022-12-28T14:40:52;7.35;57.43
76299;DHT22;65236;42.332;23.550;2022-12-28T14:43:24;7.32;57.47
76299;DHT22;65236;42.332;23.550;2022-12-28T14:45:50;7.22;57.27
76299;DHT22;65236;42.332;23.550;2022-12-28T14:53:35;6.76;59.01
76299;DHT22;65236;42.332;23.550;2022-12-28T14:56:07;6.73;59.33
76299;DHT22;65236;42.332;23.550;2022-12-28T14:58:51;6.70;60.15
76299;DHT22;65236;42.332;23.550;2022-12-28T15:01:18;6.56;61.03
76299;DHT22;65236;42.332;23.550;2022-12-28T15:03:51;6.39;62.22
76299;DHT22;65236;42.332;23.550;2022-12-28T15:06:17;6.24;63.36
76299;DHT22;65236;42.332;23.550;2022-12-28T15:08:51;6.11;64.11
76299;DHT22;65236;42.332;23.550;2022-12-28T15:11:19;5.95;65.58
76299;DHT22;65236;42.332;23.550;2022-12-28T15:13:45;5.90;65.99
76299;DHT22;65236;42.332;23.550;2022-12-28T15:16:12;5.77;66.44
76299;DHT22;65236;42.332;23.550;2022-12-28T15:18:39;5.77;66.52
76299;DHT22;65236;42.332;23.550;2022-12-28T15:21:21;5.78;66.75
76299;DHT22;65236;42.332;23.550;2022-12-28T15:23:54;5.77;66.85
76299;DHT22;65236;42.332;23.550;2022-12-28T15:26:21;5.74;67.49
76299;DHT22;65236;42.332;23.550;2022-12-28T15:28:48;5.69;67.93
76299;DHT22;65236;42.332;23.550;2022-12-28T15:31:17;5.64;68.01
76299;DHT22;65236;42.332;23.550;2022-12-28T15:33:43;5.53;69.04
76299;DHT22;65236;42.332;23.550;2022-12-28T15:36:14;5.47;69.47
76299;DHT22;65236;42.332;23.550;2022-12-28T15:38:40;5.53;69.65
76299;DHT22;65236;42.332;23.550;2022-12-28T15:41:06;5.56;70.00
76299;DHT22;65236;42.332;23.550;2022-12-28T15:43:51;5.55;70.53
76299;DHT22;65236;42.332;23.550;2022-12-28T15:46:17;5.49;70.95
76299;DHT22;65236;42.332;23.550;2022-12-28T15:48:42;5.38;71.00
76299;DHT22;65236;42.332;23.550;2022-12-28T15:51:08;5.28;71.35
76299;DHT22;65236;42.332;23.550;2022-12-28T15:53:33;5.12;71.61
76299;DHT22;65236;42.332;23.550;2022-12-28T15:55:59;4.92;72.10
76299;DHT22;65236;42.332;23.550;2022-12-28T15:58:25;4.79;72.72
76299;DHT22;65236;42.332;23.550;2022-12-28T16:00:51;4.63;73.14
76299;DHT22;65236;42.332;23.550;2022-12-28T16:03:16;4.52;73.45
76299;DHT22;65236;42.332;23.550;2022-12-28T16:05:42;4.45;73.64
76299;DHT22;65236;42.332;23.550;2022-12-28T16:08:07;4.31;74.25
76299;DHT22;65236;42.332;23.550;2022-12-28T16:10:32;4.22;74.79
76299;DHT22;65236;42.332;23.550;2022-12-28T16:12:58;4.12;75.56
76299;DHT22;65236;42.332;23.550;2022-12-28T16:15:23;4.06;75.86
76299;DHT22;65236;42.332;23.550;2022-12-28T16:17:49;3.94;76.41
76299;DHT22;65236;42.332;23.550;2022-12-28T16:20:14;3.87;77.14
76299;DHT22;65236;42.332;23.550;2022-12-28T16:22:40;3.87;77.39
76299;DHT22;65236;42.332;23.550;2022-12-28T16:25:06;3.75;77.54
76299;DHT22;65236;42.332;23.550;2022-12-28T16:27:31;3.73;78.06
76299;DHT22;65236;42.332;23.550;2022-12-28T16:29:57;3.62;78.38
76299;DHT22;65236;42.332;23.550;2022-12-28T16:32:22;3.60;78.50
76299;DHT22;65236;42.332;23.550;2022-12-28T16:34:48;3.52;78.99
76299;DHT22;65236;42.332;23.550;2022-12-28T16:37:13;3.49;79.44
76299;DHT22;65236;42.332;23.550;2022-12-28T16:39:39;3.53;79.71
76299;DHT22;65236;42.332;23.550;2022-12-28T16:42:04;3.59;79.64
76299;DHT22;65236;42.332;23.550;2022-12-28T16:44:31;3.57;79.76
76299;DHT22;65236;42.332;23.550;2022-12-28T16:46:59;3.60;79.96
76299;DHT22;65236;42.332;23.550;2022-12-28T16:49:26;3.70;79.50
76299;DHT22;65236;42.332;23.550;2022-12-28T16:51:51;3.69;79.38
76299;DHT22;65236;42.332;23.550;2022-12-28T16:54:19;3.69;79.37
76299;DHT22;65236;42.332;23.550;2022-12-28T16:56:46;3.74;79.06
76299;DHT22;65236;42.332;23.550;2022-12-28T16:59:46;3.78;79.06
76299;DHT22;65236;42.332;23.550;2022-12-28T17:02:04;3.85;78.55
76299;DHT22;65236;42.332;23.550;2022-12-28T17:04:31;3.95;78.34
76299;DHT22;65236;42.332;23.550;2022-12-28T17:06:56;4.06;77.49
76299;DHT22;65236;42.332;23.550;2022-12-28T17:09:21;4.08;76.64
76299;DHT22;65236;42.332;23.550;2022-12-28T17:11:48;4.16;76.10
76299;DHT22;65236;42.332;23.550;2022-12-28T17:14:14;4.19;75.72
76299;DHT22;65236;42.332;23.550;2022-12-28T17:16:39;4.09;75.86
76299;DHT22;65236;42.332;23.550;2022-12-28T17:19:05;4.14;75.82